createdAt,value
2022-08-01T00:00:09.921Z,2.92
2022-08-01T00:02:40.822Z,2.80
2022-08-01T00:05:09.221Z,2.92
2022-08-01T00:07:36.141Z,2.95
2022-08-01T00:10:08.070Z,3.15
2022-08-01T00:12:34.909Z,2.88
2022-08-01T00:15:01.925Z,2.90
2022-08-01T00:17:28.687Z,2.70
2022-08-01T00:19:55.435Z,2.70
2022-08-01T00:22:22.195Z,2.60
2022-08-01T00:24:49.027Z,2.78
2022-08-01T00:27:15.788Z,2.60
2022-08-01T00:30:10.064Z,2.53
2022-08-01T00:32:32.921Z,2.40
2022-08-01T00:34:59.842Z,2.50
2022-08-01T00:37:27.038Z,2.53
2022-08-01T00:39:54.026Z,2.20
2022-08-01T00:42:20.898Z,2.40
2022-08-01T00:44:48.460Z,2.75
2022-08-01T00:47:15.271Z,2.70
2022-08-01T00:49:42.083Z,2.63
2022-08-01T00:52:09.989Z,2.72
2022-08-01T00:54:37.032Z,2.50
2022-08-01T00:57:04.754Z,2.70
2022-08-01T00:59:31.919Z,2.50
2022-08-01T01:01:58.916Z,2.58
2022-08-01T01:04:25.834Z,2.53
2022-08-01T01:07:11.097Z,2.53
2022-08-01T01:09:53.330Z,2.47
2022-08-01T01:12:50.354Z,2.30
2022-08-01T01:15:22.932Z,2.42
2022-08-01T01:18:02.899Z,2.47
2022-08-01T01:20:34.902Z,2.35
2022-08-01T01:23:22.754Z,2.40
2022-08-01T01:26:01.396Z,2.55
2022-08-01T01:28:53.561Z,2.55
2022-08-01T01:33:51.392Z,2.55
2022-08-01T01:36:20.369Z,2.53
2022-08-01T01:38:49.032Z,2.40
2022-08-01T01:41:18.635Z,2.40
2022-08-01T01:43:47.624Z,2.50
2022-08-01T01:46:18.595Z,2.70
2022-08-01T01:48:47.417Z,2.90
2022-08-01T01:51:16.153Z,2.50
2022-08-01T01:53:45.072Z,2.53
2022-08-01T01:56:15.829Z,2.60
2022-08-01T01:58:44.396Z,2.67
2022-08-01T02:01:14.667Z,2.55
2022-08-01T02:03:44.387Z,2.90
2022-08-01T02:06:14.724Z,2.50
2022-08-01T02:11:12.556Z,2.45
2022-08-01T02:13:41.345Z,2.45
2022-08-01T02:16:12.191Z,2.42
2022-08-01T02:18:39.563Z,2.30
2022-08-01T02:21:13.069Z,2.45
2022-08-01T02:23:41.298Z,2.42
2022-08-01T02:26:16.685Z,2.70
2022-08-01T02:28:55.496Z,2.58
2022-08-01T02:31:23.885Z,2.38
2022-08-01T02:34:06.662Z,2.15
2022-08-01T02:36:36.417Z,2.60
2022-08-01T02:39:11.319Z,2.50
2022-08-01T02:41:43.871Z,2.42
2022-08-01T02:44:16.191Z,2.80
2022-08-01T02:46:51.093Z,2.33
2022-08-01T02:49:20.602Z,2.22
2022-08-01T02:51:49.193Z,2.57
2022-08-01T02:54:18.660Z,2.13
2022-08-01T02:56:47.752Z,2.65
2022-08-01T02:59:22.159Z,2.42
2022-08-01T03:01:51.139Z,2.40
2022-08-01T03:04:20.552Z,2.47
2022-08-01T03:06:49.103Z,2.45
2022-08-01T03:09:17.397Z,2.53
2022-08-01T03:11:46.776Z,2.50
2022-08-01T03:14:15.325Z,2.72
2022-08-01T03:16:45.336Z,2.40
2022-08-01T03:19:13.400Z,2.30
2022-08-01T03:21:44.138Z,2.55
2022-08-01T03:24:12.815Z,2.80
2022-08-01T03:26:40.599Z,2.60
2022-08-01T03:29:11.629Z,2.40
2022-08-01T03:31:43.754Z,2.67
2022-08-01T03:34:10.828Z,2.67
2022-08-01T03:37:04.080Z,2.70
2022-08-01T03:39:35.765Z,2.67
2022-08-01T03:42:12.883Z,2.40
2022-08-01T03:44:42.312Z,2.42
2022-08-01T03:47:10.978Z,2.45
2022-08-01T03:49:43.698Z,2.55
2022-08-01T03:52:11.824Z,2.45
2022-08-01T03:54:43.125Z,2.55
2022-08-01T03:57:35.741Z,2.60
2022-08-01T04:00:01.696Z,2.42
2022-08-01T04:04:56.288Z,2.55
2022-08-01T04:07:34.163Z,2.60
2022-08-01T04:10:00.984Z,2.63
2022-08-01T04:12:28.134Z,2.72
2022-08-01T04:14:54.887Z,2.65
2022-08-01T04:17:21.669Z,2.70
2022-08-01T04:19:48.488Z,2.55
2022-08-01T04:22:16.572Z,2.47
2022-08-01T04:24:56.326Z,2.60
2022-08-01T04:27:51.152Z,2.92
2022-08-01T04:30:21.313Z,2.38
2022-08-01T04:35:22.930Z,2.53
2022-08-01T04:38:07.393Z,2.50
2022-08-01T04:40:37.147Z,2.65
2022-08-01T04:43:04.514Z,2.80
2022-08-01T04:45:33.848Z,2.85
2022-08-01T04:48:01.179Z,2.53
2022-08-01T04:50:28.745Z,2.70
2022-08-01T04:52:55.516Z,2.60
2022-08-01T04:55:22.371Z,2.50
2022-08-01T04:57:49.459Z,2.97
2022-08-01T05:00:19.702Z,2.63
2022-08-01T05:02:47.534Z,2.35
2022-08-01T05:05:14.408Z,2.60
2022-08-01T05:07:45.566Z,2.67
2022-08-01T05:10:12.991Z,2.67
2022-08-01T05:12:39.815Z,2.38
2022-08-01T05:15:13.011Z,2.70
2022-08-01T05:17:43.317Z,2.60
2022-08-01T05:20:12.381Z,2.65
2022-08-01T05:22:39.541Z,2.60
2022-08-01T05:25:07.375Z,2.45
2022-08-01T05:27:39.179Z,2.45
2022-08-01T05:30:10.468Z,2.65
2022-08-01T05:32:37.923Z,2.25
2022-08-01T05:35:05.494Z,2.63
2022-08-01T05:37:32.330Z,2.50
2022-08-01T05:39:59.188Z,2.30
2022-08-01T05:42:26.095Z,2.50
2022-08-01T05:44:53.253Z,2.83
2022-08-01T05:47:20.098Z,2.30
2022-08-01T05:49:47.074Z,2.35
2022-08-01T05:52:14.011Z,2.30
2022-08-01T05:54:41.200Z,2.33
2022-08-01T05:57:08.044Z,2.30
2022-08-01T05:59:34.861Z,2.38
2022-08-01T06:02:02.456Z,2.25
2022-08-01T06:04:29.372Z,2.22
2022-08-01T06:06:56.258Z,2.33
2022-08-01T06:09:23.012Z,2.40
2022-08-01T06:11:49.804Z,2.40
2022-08-01T06:14:16.563Z,2.50
2022-08-01T06:16:43.409Z,2.10
2022-08-01T06:19:10.247Z,2.20
2022-08-01T06:21:37.172Z,2.55
2022-08-01T06:24:04.460Z,2.25
2022-08-01T06:26:32.239Z,2.08
2022-08-01T06:28:59.083Z,2.33
2022-08-01T06:31:29.298Z,2.45
2022-08-01T06:33:58.706Z,2.20
2022-08-01T06:36:26.585Z,2.20
2022-08-01T06:38:53.505Z,2.20
2022-08-01T06:41:20.382Z,2.08
2022-08-01T06:43:47.180Z,2.10
2022-08-01T06:46:14.105Z,2.83
2022-08-01T06:48:41.052Z,2.10
2022-08-01T06:51:10.627Z,2.28
2022-08-01T06:53:38.778Z,2.40
2022-08-01T06:56:07.205Z,2.20
2022-08-01T06:58:35.684Z,2.45
2022-08-01T07:01:07.102Z,2.20
2022-08-01T07:03:53.511Z,2.10
2022-08-01T07:06:21.491Z,2.20
2022-08-01T07:08:48.262Z,2.40
2022-08-01T07:11:15.025Z,2.17
2022-08-01T07:13:43.877Z,2.40
2022-08-01T07:16:13.381Z,2.28
2022-08-01T07:18:40.279Z,2.50
2022-08-01T07:21:07.130Z,2.50
2022-08-01T07:23:53.848Z,2.30
2022-08-01T07:26:22.699Z,2.30
2022-08-01T07:28:49.476Z,2.20
2022-08-01T07:31:16.448Z,2.13
2022-08-01T07:33:48.631Z,2.60
2022-08-01T07:36:16.881Z,2.20
2022-08-01T07:38:44.154Z,2.42
2022-08-01T07:41:11.084Z,2.25
2022-08-01T07:43:38.311Z,2.30
2022-08-01T07:46:05.834Z,2.00
2022-08-01T07:48:33.052Z,2.15
2022-08-01T07:50:59.786Z,2.13
2022-08-01T07:53:26.675Z,2.30
2022-08-01T07:55:53.505Z,2.20
2022-08-01T07:58:20.281Z,2.30
2022-08-01T08:00:47.063Z,2.42
2022-08-01T08:03:13.860Z,2.35
2022-08-01T08:05:58.787Z,2.40
2022-08-01T08:08:27.322Z,2.30
2022-08-01T08:10:54.195Z,2.40
2022-08-01T08:13:21.741Z,2.10
2022-08-01T08:15:49.087Z,2.22
2022-08-01T08:18:16.460Z,2.38
2022-08-01T08:20:43.584Z,2.30
2022-08-01T08:23:42.088Z,2.40
2022-08-01T08:26:10.596Z,2.40
2022-08-01T08:28:37.587Z,2.22
2022-08-01T08:31:04.364Z,2.50
2022-08-01T08:33:31.179Z,2.25
2022-08-01T08:35:57.983Z,2.42
2022-08-01T08:38:29.908Z,2.58
2022-08-01T08:40:58.365Z,2.38
2022-08-01T08:43:26.953Z,2.35
2022-08-01T08:45:58.928Z,2.40
2022-08-01T08:48:27.864Z,2.58
2022-08-01T08:50:56.386Z,2.17
2022-08-01T08:53:23.643Z,2.20
2022-08-01T08:55:55.782Z,2.35
2022-08-01T08:58:30.649Z,2.40
2022-08-01T09:00:58.941Z,2.50
2022-08-01T09:03:26.076Z,1.90
2022-08-01T09:05:52.902Z,2.10
2022-08-01T09:08:19.733Z,2.20
2022-08-01T09:10:46.503Z,2.10
2022-08-01T09:13:15.961Z,2.35
2022-08-01T09:15:54.996Z,2.20
2022-08-01T09:18:45.252Z,2.10
2022-08-01T09:21:24.044Z,2.22
2022-08-01T09:23:55.885Z,2.42
2022-08-01T09:26:29.815Z,1.90
2022-08-01T09:28:58.410Z,2.70
2022-08-01T09:31:38.406Z,2.20
2022-08-01T09:34:05.901Z,3.17
2022-08-01T09:36:59.897Z,1.95
2022-08-01T09:39:32.597Z,2.00
2022-08-01T09:42:02.878Z,2.00
2022-08-01T09:44:54.387Z,1.98
2022-08-01T09:47:23.560Z,1.80
2022-08-01T09:49:59.551Z,2.38
2022-08-01T09:52:29.057Z,3.00
2022-08-01T09:57:27.333Z,2.15
2022-08-01T10:00:01.438Z,1.80
2022-08-01T10:02:41.067Z,1.95
2022-08-01T10:05:10.924Z,1.80
2022-08-01T10:08:07.593Z,2.10
2022-08-01T10:10:35.058Z,1.70
2022-08-01T10:13:05.432Z,1.95
2022-08-01T10:15:36.459Z,2.03
2022-08-01T10:18:16.747Z,1.90
2022-08-01T10:20:56.353Z,1.92
2022-08-01T10:23:40.743Z,1.95
2022-08-01T10:26:09.032Z,1.88
2022-08-01T10:28:38.657Z,2.10
2022-08-01T10:31:12.576Z,1.95
2022-08-01T10:33:50.509Z,2.13
2022-08-01T10:36:25.439Z,2.03
2022-08-01T10:38:55.100Z,2.20
2022-08-01T10:41:22.702Z,1.60
2022-08-01T10:43:49.545Z,2.10
2022-08-01T10:46:16.935Z,1.73
2022-08-01T10:48:48.452Z,2.08
2022-08-01T10:51:18.047Z,1.70
2022-08-01T10:53:54.718Z,1.77
2022-08-01T10:56:27.257Z,1.90
2022-08-01T10:59:06.171Z,1.80
2022-08-01T11:01:38.679Z,1.83
2022-08-01T11:04:16.586Z,1.80
2022-08-01T11:07:10.074Z,1.90
2022-08-01T11:09:51.383Z,2.03
2022-08-01T11:12:24.791Z,2.30
2022-08-01T11:15:03.104Z,1.70
2022-08-01T11:17:42.208Z,1.90
2022-08-01T11:20:14.530Z,1.90
2022-08-01T11:23:05.094Z,1.90
2022-08-01T11:26:05.164Z,2.08
2022-08-01T11:28:32.453Z,2.10
2022-08-01T11:31:14.046Z,1.90
2022-08-01T11:33:41.361Z,1.60
2022-08-01T11:36:15.515Z,2.00
2022-08-01T11:38:45.522Z,1.80
2022-08-01T11:41:23.521Z,1.83
2022-08-01T11:44:18.394Z,2.00
2022-08-01T11:46:52.864Z,1.90
2022-08-01T11:49:38.788Z,1.90
2022-08-01T11:52:10.397Z,1.88
2022-08-01T11:54:55.970Z,1.83
2022-08-01T11:57:34.657Z,1.80
2022-08-01T12:00:11.189Z,1.90
2022-08-01T12:02:42.690Z,1.50
2022-08-01T12:05:15.554Z,1.50
2022-08-01T12:07:44.224Z,1.80
2022-08-01T12:10:11.875Z,1.67
2022-08-01T12:12:47.745Z,1.83
2022-08-01T12:15:15.014Z,1.65
2022-08-01T12:17:57.965Z,1.67
2022-08-01T12:20:31.159Z,1.80
2022-08-01T12:23:09.254Z,1.60
2022-08-01T12:25:37.118Z,1.73
2022-08-01T12:28:06.363Z,1.80
2022-08-01T12:30:37.151Z,1.67
2022-08-01T12:33:06.187Z,1.75
2022-08-01T12:35:33.693Z,1.52
2022-08-01T12:38:04.595Z,1.67
2022-08-01T12:40:34.597Z,1.60
2022-08-01T12:43:04.260Z,1.40
2022-08-01T12:45:57.076Z,1.60
2022-08-01T12:48:24.964Z,1.80
2022-08-01T12:50:53.589Z,1.40
2022-08-01T12:53:21.897Z,1.67
2022-08-01T12:55:58.184Z,1.52
2022-08-01T12:58:32.767Z,1.40
2022-08-01T13:01:13.320Z,1.30
2022-08-01T13:03:41.039Z,1.30
2022-08-01T13:06:18.034Z,1.50
2022-08-01T13:08:46.082Z,1.40
2022-08-01T13:11:15.828Z,1.45
2022-08-01T13:13:48.514Z,1.45
2022-08-01T13:16:18.152Z,1.55
2022-08-01T13:19:01.798Z,1.70
2022-08-01T13:21:34.519Z,1.45
2022-08-01T13:24:28.641Z,1.30
2022-08-01T13:26:58.547Z,1.45
2022-08-01T13:29:38.892Z,1.50
2022-08-01T13:32:27.604Z,1.45
2022-08-01T13:35:05.856Z,1.77
2022-08-01T13:37:33.013Z,1.80
2022-08-01T13:39:59.957Z,1.75
2022-08-01T13:42:26.755Z,1.77
2022-08-01T13:44:53.874Z,1.70
2022-08-01T13:47:31.144Z,1.73
2022-08-01T13:50:01.583Z,1.50
2022-08-01T13:52:28.874Z,1.63
2022-08-01T13:54:55.673Z,1.70
2022-08-01T13:57:22.818Z,1.60
2022-08-01T13:59:49.697Z,1.40
2022-08-01T14:02:16.468Z,1.48
2022-08-01T14:04:43.349Z,1.60
2022-08-01T14:07:14.448Z,1.48
2022-08-01T14:09:44.981Z,1.50
2022-08-01T14:12:29.987Z,1.30
2022-08-01T14:14:57.509Z,1.50
2022-08-01T14:17:24.562Z,1.60
2022-08-01T14:19:51.524Z,1.42
2022-08-01T14:22:18.420Z,1.90
2022-08-01T14:24:45.271Z,1.60
2022-08-01T14:27:12.499Z,1.45
2022-08-01T14:30:02.350Z,1.58
2022-08-01T14:32:28.548Z,1.80
2022-08-01T14:34:57.621Z,1.90
2022-08-01T14:37:29.112Z,1.80
2022-08-01T14:39:58.979Z,1.60
2022-08-01T14:42:26.455Z,1.80
2022-08-01T14:44:53.418Z,1.75
2022-08-01T14:47:21.726Z,2.20
2022-08-01T14:49:50.218Z,2.47
2022-08-01T14:52:17.554Z,2.13
2022-08-01T14:54:44.407Z,2.17
2022-08-01T14:57:11.304Z,2.05
2022-08-01T14:59:38.139Z,2.10
2022-08-01T15:02:05.304Z,2.28
2022-08-01T15:04:32.302Z,2.05
2022-08-01T15:06:59.185Z,2.10
2022-08-01T15:09:26.035Z,1.90
2022-08-01T15:11:52.937Z,2.00
2022-08-01T15:14:38.163Z,2.10
2022-08-01T15:17:05.038Z,2.05
2022-08-01T15:19:31.911Z,1.80
2022-08-01T15:21:59.372Z,1.90
2022-08-01T15:24:28.661Z,2.00
2022-08-01T15:26:55.471Z,2.30
2022-08-01T15:29:22.291Z,1.95
2022-08-01T15:31:49.047Z,2.10
2022-08-01T15:34:15.918Z,2.45
2022-08-01T15:36:44.211Z,2.30
2022-08-01T15:39:11.820Z,1.98
2022-08-01T15:41:38.776Z,2.30
2022-08-01T15:44:05.619Z,2.03
2022-08-01T15:46:32.472Z,2.10
2022-08-01T15:49:05.304Z,2.30
2022-08-01T15:51:33.556Z,2.40
2022-08-01T15:54:09.220Z,2.20
2022-08-01T15:56:40.000Z,2.55
2022-08-01T15:59:07.154Z,2.33
2022-08-01T16:01:34.290Z,2.33
2022-08-01T16:04:01.654Z,2.30
2022-08-01T16:06:28.729Z,2.20
2022-08-01T16:08:55.676Z,2.30
2022-08-01T16:11:24.030Z,1.90
2022-08-01T16:13:51.311Z,2.30
2022-08-01T16:16:18.150Z,2.00
2022-08-01T16:18:53.840Z,2.10
2022-08-01T16:21:24.013Z,2.03
2022-08-01T16:23:52.234Z,2.30
2022-08-01T16:26:27.253Z,2.08
2022-08-01T16:28:55.199Z,2.22
2022-08-01T16:31:36.305Z,2.15
2022-08-01T16:34:23.560Z,2.13
2022-08-01T16:37:16.923Z,1.70
2022-08-01T16:39:49.743Z,1.80
2022-08-01T16:42:16.911Z,1.90
2022-08-01T16:44:45.131Z,2.00
2022-08-01T16:47:13.031Z,2.00
2022-08-01T16:49:39.892Z,2.08
2022-08-01T16:52:07.646Z,2.10
2022-08-01T16:54:34.702Z,2.00
2022-08-01T16:57:08.676Z,2.20
2022-08-01T16:59:41.414Z,2.00
2022-08-01T17:02:10.672Z,2.10
2022-08-01T17:04:38.076Z,1.90
2022-08-01T17:07:05.469Z,2.05
2022-08-01T17:09:32.935Z,2.03
2022-08-01T17:11:59.729Z,1.90
2022-08-01T17:14:26.661Z,1.90
2022-08-01T17:16:54.618Z,1.88
2022-08-01T17:19:26.910Z,1.67
2022-08-01T17:22:00.211Z,1.77
2022-08-01T17:24:27.061Z,1.88
2022-08-01T17:26:53.944Z,1.98
2022-08-01T17:29:21.003Z,2.28
2022-08-01T17:31:47.863Z,2.58
2022-08-01T17:34:15.095Z,2.42
2022-08-01T17:36:41.882Z,2.28
2022-08-01T17:39:09.482Z,2.50
2022-08-01T17:41:36.309Z,2.17
2022-08-01T17:44:03.261Z,1.92
2022-08-01T17:46:30.464Z,1.95
2022-08-01T17:48:57.667Z,2.00
2022-08-01T17:51:24.574Z,1.80
2022-08-01T17:53:57.479Z,2.25
2022-08-01T17:56:28.239Z,2.30
2022-08-01T18:01:27.131Z,1.90
2022-08-01T18:03:55.361Z,1.90
2022-08-01T18:06:24.730Z,2.45
2022-08-01T18:08:55.280Z,2.20
2022-08-01T18:11:24.779Z,2.13
2022-08-01T18:13:55.588Z,2.10
2022-08-01T18:16:22.652Z,2.15
2022-08-01T18:18:49.628Z,1.90
2022-08-01T18:21:16.507Z,1.92
2022-08-01T18:23:44.324Z,1.98
2022-08-01T18:26:19.878Z,1.80
2022-08-01T18:28:47.045Z,1.80
2022-08-01T18:31:17.300Z,1.80
2022-08-01T18:33:44.483Z,2.20
2022-08-01T18:36:15.307Z,1.95
2022-08-01T18:38:59.427Z,2.38
2022-08-01T18:41:26.703Z,2.40
2022-08-01T18:44:03.904Z,2.10
2022-08-01T18:46:34.291Z,2.10
2022-08-01T18:49:01.331Z,2.00
2022-08-01T18:51:28.692Z,2.00
2022-08-01T18:53:57.840Z,2.47
2022-08-01T18:56:24.794Z,2.28
2022-08-01T18:58:52.862Z,3.00
2022-08-01T19:01:19.828Z,2.72
2022-08-01T19:03:47.093Z,2.58
2022-08-01T19:06:14.375Z,2.80
2022-08-01T19:08:41.251Z,2.60
2022-08-01T19:11:08.219Z,2.78
2022-08-01T19:13:35.015Z,2.70
2022-08-01T19:16:01.885Z,2.63
2022-08-01T19:18:28.662Z,2.50
2022-08-01T19:20:55.566Z,2.53
2022-08-01T19:23:40.973Z,2.70
2022-08-01T19:26:12.633Z,2.88
2022-08-01T19:28:46.353Z,3.05
2022-08-01T19:31:15.007Z,3.05
2022-08-01T19:33:42.442Z,3.05
2022-08-01T19:36:16.127Z,2.60
2022-08-01T19:38:44.054Z,3.15
2022-08-01T19:41:13.821Z,2.97
2022-08-01T19:43:46.148Z,2.78
2022-08-01T19:46:17.187Z,2.60
2022-08-01T19:48:49.879Z,2.95
2022-08-01T19:51:22.632Z,3.08
2022-08-01T19:53:55.694Z,2.97
2022-08-01T19:56:23.563Z,2.92
2022-08-01T19:58:52.923Z,2.90
2022-08-01T20:01:26.984Z,2.90
2022-08-01T20:03:55.065Z,2.92
2022-08-01T20:06:24.450Z,3.22
2022-08-01T20:08:52.056Z,3.20
2022-08-01T20:11:22.050Z,3.03
2022-08-01T20:13:50.765Z,2.83
2022-08-01T20:16:17.810Z,2.70
2022-08-01T20:18:45.168Z,2.95
2022-08-01T20:21:13.046Z,2.80
2022-08-01T20:23:41.523Z,3.13
2022-08-01T20:26:09.892Z,2.83
2022-08-01T20:28:41.772Z,2.72
2022-08-01T20:31:10.002Z,2.95
2022-08-01T20:33:44.349Z,2.90
2022-08-01T20:36:25.959Z,3.17
2022-08-01T20:38:55.233Z,3.17
2022-08-01T20:43:56.210Z,3.45
2022-08-01T20:46:27.654Z,3.25
2022-08-01T20:48:57.732Z,3.15
2022-08-01T20:51:26.867Z,3.38
2022-08-01T20:53:55.487Z,3.20
2022-08-01T20:56:34.446Z,3.10
2022-08-01T20:59:11.238Z,3.45
2022-08-01T21:02:01.224Z,3.15
2022-08-01T21:04:30.792Z,3.13
2022-08-01T21:07:07.303Z,3.63
2022-08-01T21:09:39.627Z,3.25
2022-08-01T21:12:11.396Z,3.17
2022-08-01T21:14:49.833Z,3.50
2022-08-01T21:17:55.971Z,3.20
2022-08-01T21:20:24.896Z,3.03
2022-08-01T21:23:05.320Z,3.33
2022-08-01T21:28:02.334Z,2.85
2022-08-01T21:30:34.823Z,2.83
2022-08-01T21:33:04.652Z,2.95
2022-08-01T21:35:32.785Z,2.55
2022-08-01T21:38:02.021Z,2.85
2022-08-01T21:40:32.119Z,2.58
2022-08-01T21:43:01.186Z,2.60
2022-08-01T21:45:29.556Z,3.03
2022-08-01T21:47:58.492Z,2.97
2022-08-01T21:50:25.544Z,2.80
2022-08-01T21:53:15.980Z,2.58
2022-08-01T21:56:28.016Z,2.65
2022-08-01T21:59:00.467Z,2.40
2022-08-01T22:01:51.357Z,2.38
2022-08-01T22:04:29.267Z,2.22
2022-08-01T22:06:57.445Z,2.20
2022-08-01T22:09:28.358Z,2.50
2022-08-01T22:12:09.400Z,2.20
2022-08-01T22:14:42.693Z,2.10
2022-08-01T22:17:16.155Z,2.25
2022-08-01T22:19:46.254Z,2.00
2022-08-01T22:22:34.261Z,2.80
2022-08-01T22:25:02.228Z,1.75
2022-08-01T22:28:08.449Z,2.00
2022-08-01T22:30:18.283Z,1.92
2022-08-01T22:33:07.566Z,2.10
2022-08-01T22:35:35.351Z,2.15
2022-08-01T22:38:02.193Z,2.30
2022-08-01T22:40:32.370Z,1.80
2022-08-01T22:43:02.251Z,1.92
2022-08-01T22:45:37.728Z,1.55
2022-08-01T22:48:15.677Z,1.65
2022-08-01T22:50:49.761Z,1.80
2022-08-01T22:53:47.189Z,1.60
2022-08-01T22:56:13.977Z,1.52
2022-08-01T22:58:43.458Z,1.65
2022-08-01T23:01:20.958Z,1.52
2022-08-01T23:03:50.794Z,1.30
2022-08-01T23:06:41.790Z,1.65
2022-08-01T23:09:13.084Z,1.40
2022-08-01T23:11:39.927Z,1.35
2022-08-01T23:14:07.888Z,1.50
2022-08-01T23:16:36.743Z,1.50
2022-08-01T23:19:03.816Z,1.90
2022-08-01T23:21:32.834Z,1.80
2022-08-01T23:24:01.083Z,1.98
2022-08-01T23:26:29.371Z,1.67
2022-08-01T23:28:57.707Z,1.60
2022-08-01T23:32:00.536Z,1.52
2022-08-01T23:34:17.892Z,1.70
2022-08-01T23:36:46.431Z,1.80
2022-08-01T23:39:13.302Z,2.15
2022-08-01T23:41:57.880Z,1.70
2022-08-01T23:44:27.471Z,1.80
2022-08-01T23:46:54.195Z,1.90
2022-08-01T23:49:21.085Z,1.73
2022-08-01T23:51:47.890Z,1.70
2022-08-01T23:54:14.756Z,1.52
2022-08-01T23:56:41.576Z,1.65
2022-08-01T23:59:09.068Z,1.60
